sensor_id;sensor_type;location;lat;lon;timestamp;P1;durP1;ratioP1;P2;durP2;ratioP2
8228;SDS011;4155;50.118;8.714;2022-11-20T00:02:48;15.90;;;8.10;;
8228;SDS011;4155;50.118;8.714;2022-11-20T00:05:17;15.70;;;8.73;;
8228;SDS011;4155;50.118;8.714;2022-11-20T00:07:46;15.10;;;8.30;;
8228;SDS011;4155;50.118;8.714;2022-11-20T00:10:17;13.50;;;8.83;;
8228;SDS011;4155;50.118;8.714;2022-11-20T00:12:50;16.37;;;8.43;;
8228;SDS011;4155;50.118;8.714;2022-11-20T00:15:18;12.70;;;7.87;;
8228;SDS011;4155;50.118;8.714;2022-11-20T00:17:49;16.50;;;8.97;;
8228;SDS011;4155;50.118;8.714;2022-11-20T00:20:17;13.60;;;8.10;;
8228;SDS011;4155;50.118;8.714;2022-11-20T00:22:45;14.70;;;8.07;;
8228;SDS011;4155;50.118;8.714;2022-11-20T00:25:13;15.20;;;8.60;;
8228;SDS011;4155;50.118;8.714;2022-11-20T00:27:41;14.53;;;8.53;;
8228;SDS011;4155;50.118;8.714;2022-11-20T00:30:08;15.17;;;8.53;;
8228;SDS011;4155;50.118;8.714;2022-11-20T00:32:41;16.10;;;8.57;;
8228;SDS011;4155;50.118;8.714;2022-11-20T00:35:12;14.60;;;8.30;;
8228;SDS011;4155;50.118;8.714;2022-11-20T00:37:40;14.37;;;7.33;;
8228;SDS011;4155;50.118;8.714;2022-11-20T00:40:09;14.77;;;8.30;;
8228;SDS011;4155;50.118;8.714;2022-11-20T00:42:39;15.80;;;9.37;;
8228;SDS011;4155;50.118;8.714;2022-11-20T00:45:11;12.23;;;8.03;;
8228;SDS011;4155;50.118;8.714;2022-11-20T00:47:39;14.67;;;9.00;;
8228;SDS011;4155;50.118;8.714;2022-11-20T00:50:09;14.17;;;8.10;;
8228;SDS011;4155;50.118;8.714;2022-11-20T00:52:40;14.30;;;7.83;;
8228;SDS011;4155;50.118;8.714;2022-11-20T00:55:08;13.83;;;7.53;;
8228;SDS011;4155;50.118;8.714;2022-11-20T00:57:36;12.20;;;8.17;;
8228;SDS011;4155;50.118;8.714;2022-11-20T01:00:04;14.70;;;7.87;;
8228;SDS011;4155;50.118;8.714;2022-11-20T01:02:33;15.30;;;7.90;;
8228;SDS011;4155;50.118;8.714;2022-11-20T01:05:01;24.33;;;8.77;;
8228;SDS011;4155;50.118;8.714;2022-11-20T01:07:30;14.10;;;8.47;;
8228;SDS011;4155;50.118;8.714;2022-11-20T01:10:00;11.97;;;7.50;;
8228;SDS011;4155;50.118;8.714;2022-11-20T01:12:28;15.30;;;9.00;;
8228;SDS011;4155;50.118;8.714;2022-11-20T01:14:56;13.83;;;7.80;;
8228;SDS011;4155;50.118;8.714;2022-11-20T01:17:23;16.63;;;9.10;;
8228;SDS011;4155;50.118;8.714;2022-11-20T01:19:51;16.00;;;8.20;;
8228;SDS011;4155;50.118;8.714;2022-11-20T01:22:20;17.33;;;8.07;;
8228;SDS011;4155;50.118;8.714;2022-11-20T01:24:49;15.93;;;8.83;;
8228;SDS011;4155;50.118;8.714;2022-11-20T01:27:18;14.90;;;8.10;;
8228;SDS011;4155;50.118;8.714;2022-11-20T01:29:46;12.70;;;7.77;;
8228;SDS011;4155;50.118;8.714;2022-11-20T01:32:16;15.30;;;9.27;;
8228;SDS011;4155;50.118;8.714;2022-11-20T01:34:44;17.90;;;8.23;;
8228;SDS011;4155;50.118;8.714;2022-11-20T01:37:15;18.33;;;7.93;;
8228;SDS011;4155;50.118;8.714;2022-11-20T01:39:48;17.73;;;8.80;;
8228;SDS011;4155;50.118;8.714;2022-11-20T01:42:16;16.77;;;8.03;;
8228;SDS011;4155;50.118;8.714;2022-11-20T01:48:06;13.60;;;8.87;;
8228;SDS011;4155;50.118;8.714;2022-11-20T01:50:39;15.10;;;8.60;;
8228;SDS011;4155;50.118;8.714;2022-11-20T01:53:10;15.90;;;9.00;;
8228;SDS011;4155;50.118;8.714;2022-11-20T01:55:47;18.23;;;8.40;;
8228;SDS011;4155;50.118;8.714;2022-11-20T01:58:17;13.53;;;8.40;;
8228;SDS011;4155;50.118;8.714;2022-11-20T02:00:54;12.73;;;7.70;;
8228;SDS011;4155;50.118;8.714;2022-11-20T02:03:23;13.30;;;7.90;;
8228;SDS011;4155;50.118;8.714;2022-11-20T02:05:53;17.63;;;7.80;;
8228;SDS011;4155;50.118;8.714;2022-11-20T02:08:26;16.00;;;8.90;;
8228;SDS011;4155;50.118;8.714;2022-11-20T02:10:56;14.77;;;7.63;;
8228;SDS011;4155;50.118;8.714;2022-11-20T02:13:23;17.60;;;10.17;;
8228;SDS011;4155;50.118;8.714;2022-11-20T02:16:16;18.57;;;9.30;;
8228;SDS011;4155;50.118;8.714;2022-11-20T02:18:49;16.10;;;9.33;;
8228;SDS011;4155;50.118;8.714;2022-11-20T02:21:27;17.87;;;8.70;;
8228;SDS011;4155;50.118;8.714;2022-11-20T02:24:01;18.70;;;8.93;;
8228;SDS011;4155;50.118;8.714;2022-11-20T02:26:33;17.43;;;8.83;;
8228;SDS011;4155;50.118;8.714;2022-11-20T02:29:05;17.67;;;8.70;;
8228;SDS011;4155;50.118;8.714;2022-11-20T02:31:35;18.87;;;9.67;;
8228;SDS011;4155;50.118;8.714;2022-11-20T02:34:04;17.97;;;9.50;;
8228;SDS011;4155;50.118;8.714;2022-11-20T02:36:34;20.10;;;9.27;;
8228;SDS011;4155;50.118;8.714;2022-11-20T02:39:04;19.83;;;9.70;;
8228;SDS011;4155;50.118;8.714;2022-11-20T02:41:33;14.93;;;9.17;;
8228;SDS011;4155;50.118;8.714;2022-11-20T02:44:03;15.03;;;9.00;;
8228;SDS011;4155;50.118;8.714;2022-11-20T02:46:32;17.50;;;9.77;;
8228;SDS011;4155;50.118;8.714;2022-11-20T02:49:01;15.00;;;8.43;;
8228;SDS011;4155;50.118;8.714;2022-11-20T02:51:30;18.17;;;10.07;;
8228;SDS011;4155;50.118;8.714;2022-11-20T02:53:58;15.40;;;8.80;;
8228;SDS011;4155;50.118;8.714;2022-11-20T02:56:27;14.53;;;8.60;;
8228;SDS011;4155;50.118;8.714;2022-11-20T02:58:55;18.20;;;9.27;;
8228;SDS011;4155;50.118;8.714;2022-11-20T03:01:23;12.50;;;7.67;;
8228;SDS011;4155;50.118;8.714;2022-11-20T03:03:51;14.57;;;8.77;;
8228;SDS011;4155;50.118;8.714;2022-11-20T03:06:20;17.43;;;8.50;;
8228;SDS011;4155;50.118;8.714;2022-11-20T03:08:48;17.33;;;8.50;;
8228;SDS011;4155;50.118;8.714;2022-11-20T03:11:16;16.03;;;9.87;;
8228;SDS011;4155;50.118;8.714;2022-11-20T03:13:47;16.07;;;9.00;;
8228;SDS011;4155;50.118;8.714;2022-11-20T03:16:16;17.50;;;8.80;;
8228;SDS011;4155;50.118;8.714;2022-11-20T03:18:45;16.00;;;7.27;;
8228;SDS011;4155;50.118;8.714;2022-11-20T03:21:13;14.40;;;7.43;;
8228;SDS011;4155;50.118;8.714;2022-11-20T03:23:41;17.43;;;8.93;;
8228;SDS011;4155;50.118;8.714;2022-11-20T03:26:13;14.53;;;8.30;;
8228;SDS011;4155;50.118;8.714;2022-11-20T03:28:42;16.30;;;9.10;;
8228;SDS011;4155;50.118;8.714;2022-11-20T03:31:18;16.63;;;9.50;;
8228;SDS011;4155;50.118;8.714;2022-11-20T03:33:48;20.37;;;9.47;;
8228;SDS011;4155;50.118;8.714;2022-11-20T03:36:16;20.33;;;8.60;;
8228;SDS011;4155;50.118;8.714;2022-11-20T03:38:48;15.90;;;8.50;;
8228;SDS011;4155;50.118;8.714;2022-11-20T03:41:17;20.40;;;10.93;;
8228;SDS011;4155;50.118;8.714;2022-11-20T03:43:47;15.60;;;9.30;;
8228;SDS011;4155;50.118;8.714;2022-11-20T03:46:15;16.17;;;9.03;;
8228;SDS011;4155;50.118;8.714;2022-11-20T03:48:44;18.40;;;9.23;;
8228;SDS011;4155;50.118;8.714;2022-11-20T03:51:18;16.13;;;9.00;;
8228;SDS011;4155;50.118;8.714;2022-11-20T03:53:49;20.30;;;9.70;;
8228;SDS011;4155;50.118;8.714;2022-11-20T03:56:19;15.63;;;9.40;;
8228;SDS011;4155;50.118;8.714;2022-11-20T03:58:53;18.70;;;9.87;;
8228;SDS011;4155;50.118;8.714;2022-11-20T04:01:21;17.70;;;10.13;;
8228;SDS011;4155;50.118;8.714;2022-11-20T04:03:52;16.47;;;9.43;;
8228;SDS011;4155;50.118;8.714;2022-11-20T04:06:22;17.70;;;9.13;;
8228;SDS011;4155;50.118;8.714;2022-11-20T04:08:51;18.90;;;9.87;;
8228;SDS011;4155;50.118;8.714;2022-11-20T04:11:22;22.20;;;8.80;;
8228;SDS011;4155;50.118;8.714;2022-11-20T04:13:53;18.07;;;9.07;;
8228;SDS011;4155;50.118;8.714;2022-11-20T04:16:22;16.50;;;9.80;;
8228;SDS011;4155;50.118;8.714;2022-11-20T04:19:00;17.33;;;9.13;;
8228;SDS011;4155;50.118;8.714;2022-11-20T04:21:30;19.13;;;9.50;;
8228;SDS011;4155;50.118;8.714;2022-11-20T04:23:58;15.80;;;8.60;;
8228;SDS011;4155;50.118;8.714;2022-11-20T04:26:26;17.83;;;8.67;;
8228;SDS011;4155;50.118;8.714;2022-11-20T04:28:55;16.57;;;9.23;;
8228;SDS011;4155;50.118;8.714;2022-11-20T04:31:25;16.27;;;8.70;;
8228;SDS011;4155;50.118;8.714;2022-11-20T04:33:53;17.90;;;9.23;;
8228;SDS011;4155;50.118;8.714;2022-11-20T04:36:24;17.13;;;9.10;;
8228;SDS011;4155;50.118;8.714;2022-11-20T04:38:53;18.20;;;9.60;;
8228;SDS011;4155;50.118;8.714;2022-11-20T04:41:23;18.87;;;9.20;;
8228;SDS011;4155;50.118;8.714;2022-11-20T04:43:52;17.90;;;9.37;;
8228;SDS011;4155;50.118;8.714;2022-11-20T04:46:26;15.03;;;8.33;;
8228;SDS011;4155;50.118;8.714;2022-11-20T04:48:55;16.93;;;8.80;;
8228;SDS011;4155;50.118;8.714;2022-11-20T04:51:24;18.73;;;9.60;;
8228;SDS011;4155;50.118;8.714;2022-11-20T04:53:52;17.60;;;8.80;;
8228;SDS011;4155;50.118;8.714;2022-11-20T04:56:20;17.03;;;8.60;;
8228;SDS011;4155;50.118;8.714;2022-11-20T04:58:48;15.43;;;7.97;;
8228;SDS011;4155;50.118;8.714;2022-11-20T05:01:17;20.70;;;9.53;;
8228;SDS011;4155;50.118;8.714;2022-11-20T05:03:46;16.70;;;8.97;;
8228;SDS011;4155;50.118;8.714;2022-11-20T05:06:15;16.50;;;8.27;;
8228;SDS011;4155;50.118;8.714;2022-11-20T05:08:45;18.13;;;8.60;;
8228;SDS011;4155;50.118;8.714;2022-11-20T05:11:14;17.20;;;9.97;;
8228;SDS011;4155;50.118;8.714;2022-11-20T05:13:43;25.20;;;10.13;;
8228;SDS011;4155;50.118;8.714;2022-11-20T05:16:13;15.73;;;8.10;;
8228;SDS011;4155;50.118;8.714;2022-11-20T05:18:42;21.13;;;8.90;;
8228;SDS011;4155;50.118;8.714;2022-11-20T05:21:11;16.40;;;8.93;;
8228;SDS011;4155;50.118;8.714;2022-11-20T05:23:39;15.00;;;8.40;;
8228;SDS011;4155;50.118;8.714;2022-11-20T05:26:12;19.50;;;9.10;;
8228;SDS011;4155;50.118;8.714;2022-11-20T05:28:40;18.53;;;9.10;;
8228;SDS011;4155;50.118;8.714;2022-11-20T05:31:10;16.83;;;8.60;;
8228;SDS011;4155;50.118;8.714;2022-11-20T05:33:39;21.30;;;10.07;;
8228;SDS011;4155;50.118;8.714;2022-11-20T05:36:08;21.17;;;9.43;;
8228;SDS011;4155;50.118;8.714;2022-11-20T05:38:37;21.13;;;9.30;;
8228;SDS011;4155;50.118;8.714;2022-11-20T05:41:06;19.17;;;10.57;;
8228;SDS011;4155;50.118;8.714;2022-11-20T05:43:37;16.67;;;9.40;;
8228;SDS011;4155;50.118;8.714;2022-11-20T05:46:06;27.50;;;11.17;;
8228;SDS011;4155;50.118;8.714;2022-11-20T05:48:36;20.57;;;10.33;;
8228;SDS011;4155;50.118;8.714;2022-11-20T05:51:06;19.63;;;9.93;;
8228;SDS011;4155;50.118;8.714;2022-11-20T05:53:35;19.23;;;8.80;;
8228;SDS011;4155;50.118;8.714;2022-11-20T05:56:15;30.60;;;11.43;;
8228;SDS011;4155;50.118;8.714;2022-11-20T05:58:46;24.27;;;10.40;;
8228;SDS011;4155;50.118;8.714;2022-11-20T06:01:15;19.43;;;10.40;;
8228;SDS011;4155;50.118;8.714;2022-11-20T06:03:44;21.37;;;10.20;;
8228;SDS011;4155;50.118;8.714;2022-11-20T06:06:14;21.53;;;10.47;;
8228;SDS011;4155;50.118;8.714;2022-11-20T06:08:42;22.17;;;10.40;;
8228;SDS011;4155;50.118;8.714;2022-11-20T06:11:11;18.10;;;9.23;;
8228;SDS011;4155;50.118;8.714;2022-11-20T06:13:40;21.30;;;10.30;;
8228;SDS011;4155;50.118;8.714;2022-11-20T06:16:10;27.40;;;9.83;;
8228;SDS011;4155;50.118;8.714;2022-11-20T06:18:38;23.40;;;10.10;;
8228;SDS011;4155;50.118;8.714;2022-11-20T06:21:07;19.97;;;9.70;;
8228;SDS011;4155;50.118;8.714;2022-11-20T06:23:36;18.20;;;8.97;;
8228;SDS011;4155;50.118;8.714;2022-11-20T06:26:04;21.20;;;10.40;;
8228;SDS011;4155;50.118;8.714;2022-11-20T06:28:34;22.70;;;10.57;;
8228;SDS011;4155;50.118;8.714;2022-11-20T06:31:02;21.97;;;10.67;;
8228;SDS011;4155;50.118;8.714;2022-11-20T06:33:31;19.00;;;10.50;;
8228;SDS011;4155;50.118;8.714;2022-11-20T06:36:00;18.07;;;8.57;;
8228;SDS011;4155;50.118;8.714;2022-11-20T06:38:35;29.80;;;10.47;;
8228;SDS011;4155;50.118;8.714;2022-11-20T06:41:03;23.10;;;10.97;;
8228;SDS011;4155;50.118;8.714;2022-11-20T06:43:32;20.60;;;11.00;;
8228;SDS011;4155;50.118;8.714;2022-11-20T06:46:00;25.43;;;11.47;;
8228;SDS011;4155;50.118;8.714;2022-11-20T06:48:28;20.60;;;10.80;;
8228;SDS011;4155;50.118;8.714;2022-11-20T06:50:57;25.00;;;10.80;;
8228;SDS011;4155;50.118;8.714;2022-11-20T06:53:25;25.50;;;11.40;;
8228;SDS011;4155;50.118;8.714;2022-11-20T06:55:56;24.43;;;10.77;;
8228;SDS011;4155;50.118;8.714;2022-11-20T06:58:26;27.50;;;10.80;;
8228;SDS011;4155;50.118;8.714;2022-11-20T07:00:57;25.97;;;11.50;;
8228;SDS011;4155;50.118;8.714;2022-11-20T07:03:26;22.80;;;10.40;;
8228;SDS011;4155;50.118;8.714;2022-11-20T07:05:54;22.93;;;10.97;;
8228;SDS011;4155;50.118;8.714;2022-11-20T07:08:24;24.33;;;10.67;;
8228;SDS011;4155;50.118;8.714;2022-11-20T07:10:56;25.83;;;10.70;;
8228;SDS011;4155;50.118;8.714;2022-11-20T07:13:25;20.63;;;10.87;;
8228;SDS011;4155;50.118;8.714;2022-11-20T07:15:53;26.60;;;10.97;;
8228;SDS011;4155;50.118;8.714;2022-11-20T07:18:21;23.80;;;11.33;;
8228;SDS011;4155;50.118;8.714;2022-11-20T07:20:49;24.33;;;10.73;;
8228;SDS011;4155;50.118;8.714;2022-11-20T07:23:17;24.00;;;11.77;;
8228;SDS011;4155;50.118;8.714;2022-11-20T07:25:47;23.10;;;10.10;;
8228;SDS011;4155;50.118;8.714;2022-11-20T07:28:15;26.57;;;10.20;;
8228;SDS011;4155;50.118;8.714;2022-11-20T07:30:43;24.50;;;10.87;;
8228;SDS011;4155;50.118;8.714;2022-11-20T07:33:17;25.27;;;9.90;;
8228;SDS011;4155;50.118;8.714;2022-11-20T07:35:44;20.27;;;10.70;;
8228;SDS011;4155;50.118;8.714;2022-11-20T07:38:12;35.43;;;12.07;;
8228;SDS011;4155;50.118;8.714;2022-11-20T07:40:40;25.20;;;10.90;;
8228;SDS011;4155;50.118;8.714;2022-11-20T07:43:09;26.40;;;10.90;;
8228;SDS011;4155;50.118;8.714;2022-11-20T07:45:37;26.50;;;12.07;;
8228;SDS011;4155;50.118;8.714;2022-11-20T07:48:06;23.83;;;10.30;;
8228;SDS011;4155;50.118;8.714;2022-11-20T07:50:34;23.70;;;11.33;;
8228;SDS011;4155;50.118;8.714;2022-11-20T07:53:02;21.30;;;10.97;;
8228;SDS011;4155;50.118;8.714;2022-11-20T07:55:30;22.43;;;10.00;;
8228;SDS011;4155;50.118;8.714;2022-11-20T07:57:59;22.27;;;10.63;;
8228;SDS011;4155;50.118;8.714;2022-11-20T08:00:28;20.70;;;10.07;;
8228;SDS011;4155;50.118;8.714;2022-11-20T08:02:56;24.47;;;11.30;;
8228;SDS011;4155;50.118;8.714;2022-11-20T08:05:24;30.97;;;11.47;;
8228;SDS011;4155;50.118;8.714;2022-11-20T08:07:51;24.17;;;11.90;;
8228;SDS011;4155;50.118;8.714;2022-11-20T08:10:19;21.30;;;11.17;;
8228;SDS011;4155;50.118;8.714;2022-11-20T08:12:48;21.10;;;10.50;;
8228;SDS011;4155;50.118;8.714;2022-11-20T08:15:36;20.43;;;10.50;;
8228;SDS011;4155;50.118;8.714;2022-11-20T08:18:05;24.63;;;10.80;;
8228;SDS011;4155;50.118;8.714;2022-11-20T08:20:54;18.63;;;10.43;;
8228;SDS011;4155;50.118;8.714;2022-11-20T08:23:22;21.90;;;9.87;;
8228;SDS011;4155;50.118;8.714;2022-11-20T08:25:50;18.87;;;10.47;;
8228;SDS011;4155;50.118;8.714;2022-11-20T08:28:18;21.00;;;10.20;;
8228;SDS011;4155;50.118;8.714;2022-11-20T08:30:49;20.60;;;9.77;;
8228;SDS011;4155;50.118;8.714;2022-11-20T08:33:18;19.60;;;8.87;;
8228;SDS011;4155;50.118;8.714;2022-11-20T08:35:45;23.47;;;11.10;;
8228;SDS011;4155;50.118;8.714;2022-11-20T08:38:14;23.77;;;11.67;;
8228;SDS011;4155;50.118;8.714;2022-11-20T08:40:42;28.63;;;12.77;;
8228;SDS011;4155;50.118;8.714;2022-11-20T08:43:31;27.67;;;11.47;;
8228;SDS011;4155;50.118;8.714;2022-11-20T08:46:00;26.30;;;12.63;;
8228;SDS011;4155;50.118;8.714;2022-11-20T08:48:28;23.90;;;11.23;;
8228;SDS011;4155;50.118;8.714;2022-11-20T08:50:57;23.90;;;10.80;;
8228;SDS011;4155;50.118;8.714;2022-11-20T08:53:25;28.20;;;12.00;;
8228;SDS011;4155;50.118;8.714;2022-11-20T08:55:53;24.90;;;11.70;;
8228;SDS011;4155;50.118;8.714;2022-11-20T08:58:20;25.80;;;11.33;;
8228;SDS011;4155;50.118;8.714;2022-11-20T09:00:48;23.20;;;10.90;;
8228;SDS011;4155;50.118;8.714;2022-11-20T09:03:18;25.07;;;11.70;;
8228;SDS011;4155;50.118;8.714;2022-11-20T09:05:47;38.53;;;12.93;;
8228;SDS011;4155;50.118;8.714;2022-11-20T09:08:14;26.27;;;11.93;;
8228;SDS011;4155;50.118;8.714;2022-11-20T09:10:42;28.47;;;11.33;;
8228;SDS011;4155;50.118;8.714;2022-11-20T09:13:09;26.70;;;11.80;;
8228;SDS011;4155;50.118;8.714;2022-11-20T09:15:38;21.87;;;11.10;;
8228;SDS011;4155;50.118;8.714;2022-11-20T09:18:05;27.30;;;12.07;;
8228;SDS011;4155;50.118;8.714;2022-11-20T09:20:34;23.37;;;11.93;;
8228;SDS011;4155;50.118;8.714;2022-11-20T09:23:03;23.97;;;11.90;;
8228;SDS011;4155;50.118;8.714;2022-11-20T09:25:30;19.33;;;10.57;;
8228;SDS011;4155;50.118;8.714;2022-11-20T09:27:58;21.70;;;11.80;;
8228;SDS011;4155;50.118;8.714;2022-11-20T09:30:27;25.43;;;11.23;;
8228;SDS011;4155;50.118;8.714;2022-11-20T09:32:55;19.27;;;10.73;;
8228;SDS011;4155;50.118;8.714;2022-11-20T09:35:22;42.50;;;16.07;;
8228;SDS011;4155;50.118;8.714;2022-11-20T09:37:52;26.30;;;12.10;;
8228;SDS011;4155;50.118;8.714;2022-11-20T09:40:21;21.00;;;11.33;;
8228;SDS011;4155;50.118;8.714;2022-11-20T09:42:52;20.37;;;10.27;;
8228;SDS011;4155;50.118;8.714;2022-11-20T09:45:26;18.97;;;10.17;;
8228;SDS011;4155;50.118;8.714;2022-11-20T09:48:08;22.37;;;11.23;;
8228;SDS011;4155;50.118;8.714;2022-11-20T09:50:49;20.73;;;10.30;;
8228;SDS011;4155;50.118;8.714;2022-11-20T09:53:26;23.93;;;11.70;;
8228;SDS011;4155;50.118;8.714;2022-11-20T09:56:01;23.03;;;12.00;;
8228;SDS011;4155;50.118;8.714;2022-11-20T09:58:31;18.27;;;11.00;;
8228;SDS011;4155;50.118;8.714;2022-11-20T10:01:07;20.10;;;10.33;;
8228;SDS011;4155;50.118;8.714;2022-11-20T10:03:41;25.60;;;11.97;;
8228;SDS011;4155;50.118;8.714;2022-11-20T10:06:17;24.10;;;12.97;;
8228;SDS011;4155;50.118;8.714;2022-11-20T10:08:51;26.43;;;13.50;;
8228;SDS011;4155;50.118;8.714;2022-11-20T10:11:30;28.77;;;13.20;;
8228;SDS011;4155;50.118;8.714;2022-11-20T10:14:07;22.17;;;11.90;;
8228;SDS011;4155;50.118;8.714;2022-11-20T10:16:50;24.40;;;11.77;;
8228;SDS011;4155;50.118;8.714;2022-11-20T10:19:30;24.30;;;12.40;;
8228;SDS011;4155;50.118;8.714;2022-11-20T10:22:14;23.00;;;12.00;;
8228;SDS011;4155;50.118;8.714;2022-11-20T10:24:56;26.20;;;13.60;;
8228;SDS011;4155;50.118;8.714;2022-11-20T10:30:48;25.13;;;13.40;;
8228;SDS011;4155;50.118;8.714;2022-11-20T10:33:24;24.03;;;11.03;;
8228;SDS011;4155;50.118;8.714;2022-11-20T10:36:16;20.97;;;10.93;;
8228;SDS011;4155;50.118;8.714;2022-11-20T10:38:49;28.23;;;13.70;;
8228;SDS011;4155;50.118;8.714;2022-11-20T10:41:24;23.27;;;11.60;;
8228;SDS011;4155;50.118;8.714;2022-11-20T10:44:03;28.57;;;12.87;;
8228;SDS011;4155;50.118;8.714;2022-11-20T10:46:34;21.83;;;11.50;;
8228;SDS011;4155;50.118;8.714;2022-11-20T10:49:10;22.33;;;11.70;;
8228;SDS011;4155;50.118;8.714;2022-11-20T10:51:43;23.43;;;11.77;;
8228;SDS011;4155;50.118;8.714;2022-11-20T10:54:20;18.67;;;9.93;;
8228;SDS011;4155;50.118;8.714;2022-11-20T10:56:55;24.90;;;11.67;;
8228;SDS011;4155;50.118;8.714;2022-11-20T10:59:32;21.67;;;11.17;;
8228;SDS011;4155;50.118;8.714;2022-11-20T11:02:17;21.20;;;11.33;;
8228;SDS011;4155;50.118;8.714;2022-11-20T11:04:47;22.40;;;11.37;;
8228;SDS011;4155;50.118;8.714;2022-11-20T11:07:21;20.20;;;11.37;;
8228;SDS011;4155;50.118;8.714;2022-11-20T11:09:52;19.50;;;10.97;;
8228;SDS011;4155;50.118;8.714;2022-11-20T11:12:24;22.40;;;11.77;;
8228;SDS011;4155;50.118;8.714;2022-11-20T11:14:55;28.37;;;13.87;;
8228;SDS011;4155;50.118;8.714;2022-11-20T11:17:26;25.20;;;12.67;;
8228;SDS011;4155;50.118;8.714;2022-11-20T11:20:01;30.80;;;13.17;;
8228;SDS011;4155;50.118;8.714;2022-11-20T11:22:42;28.23;;;14.47;;
8228;SDS011;4155;50.118;8.714;2022-11-20T11:25:19;26.87;;;14.73;;
8228;SDS011;4155;50.118;8.714;2022-11-20T11:27:51;35.07;;;15.10;;
8228;SDS011;4155;50.118;8.714;2022-11-20T11:30:23;34.67;;;16.53;;
8228;SDS011;4155;50.118;8.714;2022-11-20T11:33:04;28.97;;;13.30;;
8228;SDS011;4155;50.118;8.714;2022-11-20T11:35:33;29.10;;;13.73;;
8228;SDS011;4155;50.118;8.714;2022-11-20T11:38:05;30.57;;;14.33;;
8228;SDS011;4155;50.118;8.714;2022-11-20T11:40:35;24.70;;;14.03;;
8228;SDS011;4155;50.118;8.714;2022-11-20T11:43:15;27.60;;;13.50;;
8228;SDS011;4155;50.118;8.714;2022-11-20T11:46:03;27.20;;;13.13;;
8228;SDS011;4155;50.118;8.714;2022-11-20T11:48:40;31.37;;;15.10;;
8228;SDS011;4155;50.118;8.714;2022-11-20T11:51:19;27.37;;;13.57;;
8228;SDS011;4155;50.118;8.714;2022-11-20T11:53:47;25.73;;;13.00;;
8228;SDS011;4155;50.118;8.714;2022-11-20T11:56:15;27.40;;;12.93;;
8228;SDS011;4155;50.118;8.714;2022-11-20T11:58:45;25.43;;;13.30;;
8228;SDS011;4155;50.118;8.714;2022-11-20T12:01:20;22.30;;;12.80;;
8228;SDS011;4155;50.118;8.714;2022-11-20T12:03:55;30.93;;;14.30;;
8228;SDS011;4155;50.118;8.714;2022-11-20T12:06:29;29.67;;;13.97;;
8228;SDS011;4155;50.118;8.714;2022-11-20T12:09:01;23.40;;;12.63;;
8228;SDS011;4155;50.118;8.714;2022-11-20T12:11:34;27.87;;;13.13;;
8228;SDS011;4155;50.118;8.714;2022-11-20T12:14:11;26.07;;;13.87;;
8228;SDS011;4155;50.118;8.714;2022-11-20T12:16:52;26.47;;;12.33;;
8228;SDS011;4155;50.118;8.714;2022-11-20T12:19:23;24.57;;;12.27;;
8228;SDS011;4155;50.118;8.714;2022-11-20T12:21:53;25.67;;;14.07;;
8228;SDS011;4155;50.118;8.714;2022-11-20T12:24:39;31.77;;;13.93;;
8228;SDS011;4155;50.118;8.714;2022-11-20T12:27:35;29.93;;;13.23;;
8228;SDS011;4155;50.118;8.714;2022-11-20T12:30:27;24.33;;;12.57;;
8228;SDS011;4155;50.118;8.714;2022-11-20T12:33:02;25.47;;;13.80;;
8228;SDS011;4155;50.118;8.714;2022-11-20T12:35:46;25.73;;;12.30;;
8228;SDS011;4155;50.118;8.714;2022-11-20T12:38:45;25.13;;;14.33;;
8228;SDS011;4155;50.118;8.714;2022-11-20T12:41:43;23.47;;;12.20;;
8228;SDS011;4155;50.118;8.714;2022-11-20T12:44:42;26.33;;;14.13;;
8228;SDS011;4155;50.118;8.714;2022-11-20T12:47:45;21.87;;;11.20;;
8228;SDS011;4155;50.118;8.714;2022-11-20T12:50:34;28.70;;;12.73;;
8228;SDS011;4155;50.118;8.714;2022-11-20T12:53:31;21.83;;;11.37;;
8228;SDS011;4155;50.118;8.714;2022-11-20T12:56:07;25.93;;;12.77;;
8228;SDS011;4155;50.118;8.714;2022-11-20T12:58:46;21.73;;;11.47;;
8228;SDS011;4155;50.118;8.714;2022-11-20T13:01:24;22.00;;;12.20;;
8228;SDS011;4155;50.118;8.714;2022-11-20T13:04:12;25.10;;;13.23;;
8228;SDS011;4155;50.118;8.714;2022-11-20T13:06:47;24.83;;;11.60;;
8228;SDS011;4155;50.118;8.714;2022-11-20T13:09:16;25.53;;;12.87;;
8228;SDS011;4155;50.118;8.714;2022-11-20T13:11:48;23.63;;;11.90;;
8228;SDS011;4155;50.118;8.714;2022-11-20T13:14:26;20.90;;;10.53;;
8228;SDS011;4155;50.118;8.714;2022-11-20T13:17:03;22.20;;;13.10;;
8228;SDS011;4155;50.118;8.714;2022-11-20T13:19:42;18.10;;;10.70;;
8228;SDS011;4155;50.118;8.714;2022-11-20T13:22:23;25.73;;;12.57;;
8228;SDS011;4155;50.118;8.714;2022-11-20T13:24:51;21.30;;;11.93;;
8228;SDS011;4155;50.118;8.714;2022-11-20T13:27:20;25.83;;;10.77;;
8228;SDS011;4155;50.118;8.714;2022-11-20T13:29:59;23.40;;;12.03;;
8228;SDS011;4155;50.118;8.714;2022-11-20T13:32:29;18.00;;;9.13;;
8228;SDS011;4155;50.118;8.714;2022-11-20T13:35:00;25.93;;;10.73;;
8228;SDS011;4155;50.118;8.714;2022-11-20T13:37:31;20.43;;;10.43;;
8228;SDS011;4155;50.118;8.714;2022-11-20T13:40:19;21.90;;;11.23;;
8228;SDS011;4155;50.118;8.714;2022-11-20T13:42:55;18.20;;;9.60;;
8228;SDS011;4155;50.118;8.714;2022-11-20T13:45:29;18.87;;;9.97;;
8228;SDS011;4155;50.118;8.714;2022-11-20T13:48:01;19.33;;;10.53;;
8228;SDS011;4155;50.118;8.714;2022-11-20T13:50:41;20.60;;;11.17;;
8228;SDS011;4155;50.118;8.714;2022-11-20T13:53:25;16.73;;;9.77;;
8228;SDS011;4155;50.118;8.714;2022-11-20T13:56:05;17.30;;;10.20;;
8228;SDS011;4155;50.118;8.714;2022-11-20T13:58:44;17.23;;;10.00;;
8228;SDS011;4155;50.118;8.714;2022-11-20T14:01:21;18.53;;;9.63;;
8228;SDS011;4155;50.118;8.714;2022-11-20T14:03:51;20.47;;;10.30;;
8228;SDS011;4155;50.118;8.714;2022-11-20T14:06:34;19.03;;;9.20;;
8228;SDS011;4155;50.118;8.714;2022-11-20T14:09:10;17.90;;;10.40;;
8228;SDS011;4155;50.118;8.714;2022-11-20T14:11:45;17.17;;;10.57;;
8228;SDS011;4155;50.118;8.714;2022-11-20T14:14:15;21.37;;;11.07;;
8228;SDS011;4155;50.118;8.714;2022-11-20T14:16:47;19.30;;;9.80;;
8228;SDS011;4155;50.118;8.714;2022-11-20T14:19:26;19.77;;;9.93;;
8228;SDS011;4155;50.118;8.714;2022-11-20T14:22:08;20.47;;;10.40;;
8228;SDS011;4155;50.118;8.714;2022-11-20T14:24:44;21.03;;;9.97;;
8228;SDS011;4155;50.118;8.714;2022-11-20T14:27:12;14.93;;;8.90;;
8228;SDS011;4155;50.118;8.714;2022-11-20T14:29:41;21.80;;;9.43;;
8228;SDS011;4155;50.118;8.714;2022-11-20T14:32:12;17.33;;;9.90;;
8228;SDS011;4155;50.118;8.714;2022-11-20T14:34:43;16.70;;;9.40;;
8228;SDS011;4155;50.118;8.714;2022-11-20T14:37:17;15.57;;;8.83;;
8228;SDS011;4155;50.118;8.714;2022-11-20T14:39:49;20.50;;;10.70;;
8228;SDS011;4155;50.118;8.714;2022-11-20T14:42:19;16.40;;;10.63;;
8228;SDS011;4155;50.118;8.714;2022-11-20T14:44:48;16.13;;;8.77;;
8228;SDS011;4155;50.118;8.714;2022-11-20T14:47:18;17.77;;;9.10;;
8228;SDS011;4155;50.118;8.714;2022-11-20T14:49:48;15.37;;;8.07;;
8228;SDS011;4155;50.118;8.714;2022-11-20T14:52:19;17.10;;;9.80;;
8228;SDS011;4155;50.118;8.714;2022-11-20T14:54:51;13.90;;;8.80;;
8228;SDS011;4155;50.118;8.714;2022-11-20T14:57:21;19.73;;;10.17;;
8228;SDS011;4155;50.118;8.714;2022-11-20T15:00:03;15.37;;;9.77;;
8228;SDS011;4155;50.118;8.714;2022-11-20T15:02:33;17.10;;;9.60;;
8228;SDS011;4155;50.118;8.714;2022-11-20T15:05:01;14.73;;;8.07;;
8228;SDS011;4155;50.118;8.714;2022-11-20T15:07:34;16.63;;;9.00;;
8228;SDS011;4155;50.118;8.714;2022-11-20T15:10:08;15.30;;;8.50;;
8228;SDS011;4155;50.118;8.714;2022-11-20T15:12:38;18.93;;;10.10;;
8228;SDS011;4155;50.118;8.714;2022-11-20T15:15:14;14.70;;;9.17;;
8228;SDS011;4155;50.118;8.714;2022-11-20T15:17:46;19.97;;;9.37;;
8228;SDS011;4155;50.118;8.714;2022-11-20T15:20:14;16.57;;;10.17;;
8228;SDS011;4155;50.118;8.714;2022-11-20T15:22:44;17.37;;;9.40;;
8228;SDS011;4155;50.118;8.714;2022-11-20T15:25:12;22.20;;;10.20;;
8228;SDS011;4155;50.118;8.714;2022-11-20T15:27:41;19.77;;;10.07;;
8228;SDS011;4155;50.118;8.714;2022-11-20T15:30:12;21.13;;;11.43;;